sensor_id;sensor_type;location;lat;lon;timestamp;pressure;altitude;pressure_sealevel;temperature;humidity
84169;BME280;74295;50.146;8.794;2024-03-06T00:04:04;100845.56;;;7.40;91.68
84169;BME280;74295;50.146;8.794;2024-03-06T00:14:08;100860.31;;;7.37;91.73
84169;BME280;74295;50.146;8.794;2024-03-06T00:24:11;100870.09;;;7.32;92.70
84169;BME280;74295;50.146;8.794;2024-03-06T00:34:15;100873.88;;;6.98;92.67
84169;BME280;74295;50.146;8.794;2024-03-06T00:44:18;100888.84;;;6.68;93.79
84169;BME280;74295;50.146;8.794;2024-03-06T00:54:22;100903.34;;;6.74;93.54
84169;BME280;74295;50.146;8.794;2024-03-06T01:04:25;100892.78;;;6.72;93.58
84169;BME280;74295;50.146;8.794;2024-03-06T01:14:29;100909.13;;;6.64;93.36
84169;BME280;74295;50.146;8.794;2024-03-06T01:24:32;100905.22;;;6.67;92.75
84169;BME280;74295;50.146;8.794;2024-03-06T01:34:36;100899.59;;;6.42;93.68
84169;BME280;74295;50.146;8.794;2024-03-06T01:44:39;100908.47;;;6.17;93.61
84169;BME280;74295;50.146;8.794;2024-03-06T01:54:44;100893.88;;;5.85;94.83
84169;BME280;74295;50.146;8.794;2024-03-06T02:04:47;100908.22;;;5.58;95.66
84169;BME280;74295;50.146;8.794;2024-03-06T02:14:51;100911.03;;;5.37;95.38
84169;BME280;74295;50.146;8.794;2024-03-06T02:24:55;100928.56;;;5.33;95.30
84169;BME280;74295;50.146;8.794;2024-03-06T02:34:58;100923.81;;;5.35;94.36
84169;BME280;74295;50.146;8.794;2024-03-06T02:45:05;100912.88;;;5.37;94.10
84169;BME280;74295;50.146;8.794;2024-03-06T02:55:08;100906.94;;;5.13;93.98
84169;BME280;74295;50.146;8.794;2024-03-06T03:05:13;100918.19;;;4.96;94.61
84169;BME280;74295;50.146;8.794;2024-03-06T03:15:16;100921.66;;;4.90;94.65
84169;BME280;74295;50.146;8.794;2024-03-06T03:25:20;100913.16;;;4.86;94.03
84169;BME280;74295;50.146;8.794;2024-03-06T03:35:23;100932.53;;;4.82;93.87
84169;BME280;74295;50.146;8.794;2024-03-06T03:45:28;100949.28;;;4.84;93.75
84169;BME280;74295;50.146;8.794;2024-03-06T03:55:30;100947.28;;;4.92;94.29
84169;BME280;74295;50.146;8.794;2024-03-06T04:05:34;100957.09;;;5.00;95.08
84169;BME280;74295;50.146;8.794;2024-03-06T04:15:37;100961.50;;;4.86;94.26
84169;BME280;74295;50.146;8.794;2024-03-06T04:25:41;100961.25;;;4.81;94.04
84169;BME280;74295;50.146;8.794;2024-03-06T04:35:44;100978.19;;;4.82;93.95
84169;BME280;74295;50.146;8.794;2024-03-06T04:45:48;100985.44;;;4.81;94.05
84169;BME280;74295;50.146;8.794;2024-03-06T04:55:50;100984.34;;;4.97;94.16
84169;BME280;74295;50.146;8.794;2024-03-06T05:05:55;101006.00;;;4.95;94.27
84169;BME280;74295;50.146;8.794;2024-03-06T05:16:16;101020.41;;;4.88;95.53
84169;BME280;74295;50.146;8.794;2024-03-06T05:26:38;101039.72;;;4.98;95.52
84169;BME280;74295;50.146;8.794;2024-03-06T05:36:58;101042.41;;;4.98;94.40
84169;BME280;74295;50.146;8.794;2024-03-06T05:47:20;101049.44;;;4.78;93.74
84169;BME280;74295;50.146;8.794;2024-03-06T05:57:40;101066.63;;;4.62;94.49
84169;BME280;74295;50.146;8.794;2024-03-06T06:08:06;101085.44;;;4.48;94.54
84169;BME280;74295;50.146;8.794;2024-03-06T06:18:09;101089.31;;;4.60;94.60
84169;BME280;74295;50.146;8.794;2024-03-06T06:28:13;101104.06;;;4.85;93.79
84169;BME280;74295;50.146;8.794;2024-03-06T06:38:16;101102.44;;;4.90;93.48
84169;BME280;74295;50.146;8.794;2024-03-06T06:48:20;101103.44;;;5.04;93.08
84169;BME280;74295;50.146;8.794;2024-03-06T06:58:23;101118.09;;;5.22;93.06
84169;BME280;74295;50.146;8.794;2024-03-06T07:08:27;101139.53;;;5.65;92.37
84169;BME280;74295;50.146;8.794;2024-03-06T07:18:29;101153.28;;;5.97;93.20
84169;BME280;74295;50.146;8.794;2024-03-06T07:28:34;101179.59;;;6.29;92.27
84169;BME280;74295;50.146;8.794;2024-03-06T07:38:36;101190.94;;;6.59;91.15
84169;BME280;74295;50.146;8.794;2024-03-06T07:48:43;101193.44;;;6.60;90.46
84169;BME280;74295;50.146;8.794;2024-03-06T07:58:46;101208.81;;;6.73;89.86
84169;BME280;74295;50.146;8.794;2024-03-06T08:08:50;101214.72;;;6.96;88.33
84169;BME280;74295;50.146;8.794;2024-03-06T08:18:55;101222.94;;;7.28;86.70
84169;BME280;74295;50.146;8.794;2024-03-06T08:28:59;101219.47;;;7.54;87.07
84169;BME280;74295;50.146;8.794;2024-03-06T08:39:02;101220.13;;;8.08;85.32
84169;BME280;74295;50.146;8.794;2024-03-06T08:49:08;101238.63;;;8.37;84.61
84169;BME280;74295;50.146;8.794;2024-03-06T08:59:12;101240.06;;;8.40;85.03
84169;BME280;74295;50.146;8.794;2024-03-06T09:09:16;101255.22;;;8.08;85.65
84169;BME280;74295;50.146;8.794;2024-03-06T09:19:19;101252.97;;;7.92;84.80
84169;BME280;74295;50.146;8.794;2024-03-06T09:29:23;101256.91;;;8.09;84.82
84169;BME280;74295;50.146;8.794;2024-03-06T09:39:26;101272.28;;;8.28;84.41
84169;BME280;74295;50.146;8.794;2024-03-06T09:49:30;101271.47;;;8.28;84.64
84169;BME280;74295;50.146;8.794;2024-03-06T09:59:33;101266.25;;;8.46;83.03
84169;BME280;74295;50.146;8.794;2024-03-06T10:09:39;101267.56;;;9.13;82.09
84169;BME280;74295;50.146;8.794;2024-03-06T10:19:42;101270.22;;;9.20;81.01
84169;BME280;74295;50.146;8.794;2024-03-06T10:30:02;101265.22;;;9.23;79.95
84169;BME280;74295;50.146;8.794;2024-03-06T10:40:09;101287.09;;;9.22;79.07
84169;BME280;74295;50.146;8.794;2024-03-06T10:50:19;101292.28;;;9.17;78.72
84169;BME280;74295;50.146;8.794;2024-03-06T11:00:23;101289.38;;;9.25;79.04
84169;BME280;74295;50.146;8.794;2024-03-06T11:10:31;101290.72;;;9.78;76.23
84169;BME280;74295;50.146;8.794;2024-03-06T11:20:34;101298.19;;;9.89;74.94
84169;BME280;74295;50.146;8.794;2024-03-06T11:30:45;101284.88;;;10.18;73.08
84169;BME280;74295;50.146;8.794;2024-03-06T11:40:49;101285.97;;;10.60;70.66
84169;BME280;74295;50.146;8.794;2024-03-06T11:50:55;101270.00;;;10.70;71.57
84169;BME280;74295;50.146;8.794;2024-03-06T12:00:57;101276.50;;;11.05;71.45
84169;BME280;74295;50.146;8.794;2024-03-06T12:11:04;101280.13;;;10.81;70.32
84169;BME280;74295;50.146;8.794;2024-03-06T12:21:06;101287.72;;;10.48;70.05
84169;BME280;74295;50.146;8.794;2024-03-06T12:31:11;101280.38;;;10.30;70.49
84169;BME280;74295;50.146;8.794;2024-03-06T12:41:14;101294.53;;;10.08;71.04
84169;BME280;74295;50.146;8.794;2024-03-06T12:51:19;101298.66;;;10.42;70.66
84169;BME280;74295;50.146;8.794;2024-03-06T13:01:21;101281.56;;;10.59;69.79
84169;BME280;74295;50.146;8.794;2024-03-06T13:11:25;101284.81;;;10.68;68.26
84169;BME280;74295;50.146;8.794;2024-03-06T13:21:28;101277.34;;;11.06;67.57
84169;BME280;74295;50.146;8.794;2024-03-06T13:31:32;101285.19;;;10.96;66.97
84169;BME280;74295;50.146;8.794;2024-03-06T13:41:35;101281.41;;;10.97;68.01
84169;BME280;74295;50.146;8.794;2024-03-06T13:51:39;101288.47;;;10.98;67.56
84169;BME280;74295;50.146;8.794;2024-03-06T14:01:42;101286.06;;;11.08;67.61
84169;BME280;74295;50.146;8.794;2024-03-06T14:11:46;101284.88;;;10.86;67.07
84169;BME280;74295;50.146;8.794;2024-03-06T14:21:49;101297.44;;;10.80;68.84
84169;BME280;74295;50.146;8.794;2024-03-06T14:31:54;101304.97;;;10.78;68.78
84169;BME280;74295;50.146;8.794;2024-03-06T14:41:56;101302.78;;;10.87;69.06
84169;BME280;74295;50.146;8.794;2024-03-06T14:52:01;101291.56;;;10.83;69.47
84169;BME280;74295;50.146;8.794;2024-03-06T15:02:04;101283.72;;;10.93;68.89
84169;BME280;74295;50.146;8.794;2024-03-06T15:12:09;101287.63;;;10.79;69.56
84169;BME280;74295;50.146;8.794;2024-03-06T15:22:12;101296.91;;;10.72;69.16
84169;BME280;74295;50.146;8.794;2024-03-06T15:32:16;101290.69;;;10.65;69.42
84169;BME280;74295;50.146;8.794;2024-03-06T15:42:19;101304.66;;;10.44;70.45
84169;BME280;74295;50.146;8.794;2024-03-06T15:52:24;101296.75;;;10.42;71.55
84169;BME280;74295;50.146;8.794;2024-03-06T16:02:27;101315.06;;;10.22;72.58
84169;BME280;74295;50.146;8.794;2024-03-06T16:12:31;101323.03;;;10.17;72.73
84169;BME280;74295;50.146;8.794;2024-03-06T16:22:34;101335.84;;;9.97;72.85
84169;BME280;74295;50.146;8.794;2024-03-06T16:32:39;101338.00;;;9.82;73.45
84169;BME280;74295;50.146;8.794;2024-03-06T16:42:42;101348.53;;;9.59;74.72
84169;BME280;74295;50.146;8.794;2024-03-06T16:52:46;101363.41;;;9.37;75.63
84169;BME280;74295;50.146;8.794;2024-03-06T17:02:49;101365.31;;;9.23;76.60
84169;BME280;74295;50.146;8.794;2024-03-06T17:12:53;101389.28;;;8.94;77.79
84169;BME280;74295;50.146;8.794;2024-03-06T17:22:56;101374.56;;;8.83;76.89
84169;BME280;74295;50.146;8.794;2024-03-06T17:33:00;101385.34;;;8.64;77.37
84169;BME280;74295;50.146;8.794;2024-03-06T17:43:04;101394.72;;;8.42;78.04
84169;BME280;74295;50.146;8.794;2024-03-06T17:53:08;101412.28;;;8.18;78.28
84169;BME280;74295;50.146;8.794;2024-03-06T18:03:11;101424.03;;;7.91;78.91
84169;BME280;74295;50.146;8.794;2024-03-06T18:13:15;101425.44;;;7.74;79.38
84169;BME280;74295;50.146;8.794;2024-03-06T18:23:18;101426.84;;;7.63;79.22
84169;BME280;74295;50.146;8.794;2024-03-06T18:33:22;101431.50;;;7.42;80.50
84169;BME280;74295;50.146;8.794;2024-03-06T18:43:25;101429.03;;;7.13;81.84
84169;BME280;74295;50.146;8.794;2024-03-06T18:53:29;101445.56;;;7.03;81.96
84169;BME280;74295;50.146;8.794;2024-03-06T19:03:32;101457.22;;;6.83;82.69
84169;BME280;74295;50.146;8.794;2024-03-06T19:13:38;101461.19;;;6.66;83.31
84169;BME280;74295;50.146;8.794;2024-03-06T19:23:42;101468.22;;;6.39;83.37
84169;BME280;74295;50.146;8.794;2024-03-06T19:33:46;101467.22;;;6.26;82.91
84169;BME280;74295;50.146;8.794;2024-03-06T19:43:49;101468.25;;;6.25;82.26
84169;BME280;74295;50.146;8.794;2024-03-06T19:53:53;101469.28;;;6.24;82.32
84169;BME280;74295;50.146;8.794;2024-03-06T20:03:57;101479.91;;;6.11;81.87
84169;BME280;74295;50.146;8.794;2024-03-06T20:14:02;101470.59;;;6.13;81.30
84169;BME280;74295;50.146;8.794;2024-03-06T20:24:05;101476.13;;;5.91;82.42
84169;BME280;74295;50.146;8.794;2024-03-06T20:34:11;101479.28;;;5.65;82.66
84169;BME280;74295;50.146;8.794;2024-03-06T20:44:14;101473.34;;;5.55;84.10
84169;BME280;74295;50.146;8.794;2024-03-06T20:54:18;101469.91;;;5.47;83.91
84169;BME280;74295;50.146;8.794;2024-03-06T21:04:22;101476.41;;;5.38;83.97
84169;BME280;74295;50.146;8.794;2024-03-06T21:14:27;101476.19;;;5.24;84.15
84169;BME280;74295;50.146;8.794;2024-03-06T21:24:30;101474.44;;;5.17;84.91
84169;BME280;74295;50.146;8.794;2024-03-06T21:34:35;101473.53;;;5.10;85.20
84169;BME280;74295;50.146;8.794;2024-03-06T21:44:37;101484.31;;;5.02;85.40
84169;BME280;74295;50.146;8.794;2024-03-06T21:54:44;101487.50;;;5.05;85.68
84169;BME280;74295;50.146;8.794;2024-03-06T22:04:47;101485.72;;;4.98;86.13
84169;BME280;74295;50.146;8.794;2024-03-06T22:14:51;101488.19;;;4.85;86.68
84169;BME280;74295;50.146;8.794;2024-03-06T22:24:54;101504.25;;;4.70;86.63
84169;BME280;74295;50.146;8.794;2024-03-06T22:34:58;101497.56;;;4.66;86.50
84169;BME280;74295;50.146;8.794;2024-03-06T22:45:01;101491.00;;;4.69;85.90
84169;BME280;74295;50.146;8.794;2024-03-06T22:55:06;101489.81;;;4.71;86.21
84169;BME280;74295;50.146;8.794;2024-03-06T23:05:13;101501.72;;;4.69;86.29
84169;BME280;74295;50.146;8.794;2024-03-06T23:15:59;101494.34;;;4.71;85.76
84169;BME280;74295;50.146;8.794;2024-03-06T23:26:02;101484.84;;;4.60;86.25
84169;BME280;74295;50.146;8.794;2024-03-06T23:36:07;101483.50;;;4.64;85.40
84169;BME280;74295;50.146;8.794;2024-03-06T23:46:09;101482.34;;;4.59;85.40
84169;BME280;74295;50.146;8.794;2024-03-06T23:56:13;101481.94;;;4.70;84.58
